sensor_id;sensor_type;location;lat;lon;timestamp;temperature;humidity
50788;DHT22;36756;50.846;20.632;2022-07-22T00:07:03;23;76
50788;DHT22;36756;50.846;20.632;2022-07-22T00:14:02;23;76
50788;DHT22;36756;50.846;20.632;2022-07-22T00:21:18;23;76
50788;DHT22;36756;50.846;20.632;2022-07-22T00:28:03;23;76
50788;DHT22;36756;50.846;20.632;2022-07-22T00:35:20;26;83
50788;DHT22;36756;50.846;20.632;2022-07-22T00:42:02;26;83
50788;DHT22;36756;50.846;20.632;2022-07-22T00:49:18;26;83
50788;DHT22;36756;50.846;20.632;2022-07-22T00:56:21;26;83
50788;DHT22;36756;50.846;20.632;2022-07-22T01:00:26;26;83
50788;DHT22;36756;50.846;20.632;2022-07-22T01:07:05;25;81
50788;DHT22;36756;50.846;20.632;2022-07-22T01:14:18;25;81
50788;DHT22;36756;50.846;20.632;2022-07-22T01:21:26;25;81
50788;DHT22;36756;50.846;20.632;2022-07-22T01:28:04;25;81
50788;DHT22;36756;50.846;20.632;2022-07-22T01:35:02;25;83
50788;DHT22;36756;50.846;20.632;2022-07-22T01:42:17;25;83
50788;DHT22;36756;50.846;20.632;2022-07-22T01:49:20;25;83
50788;DHT22;36756;50.846;20.632;2022-07-22T01:56:09;25;83
50788;DHT22;36756;50.846;20.632;2022-07-22T02:00:27;25;83
50788;DHT22;36756;50.846;20.632;2022-07-22T02:07:07;25;84
50788;DHT22;36756;50.846;20.632;2022-07-22T02:14:15;25;84
50788;DHT22;36756;50.846;20.632;2022-07-22T02:21:18;25;84
50788;DHT22;36756;50.846;20.632;2022-07-22T02:28:06;25;84
50788;DHT22;36756;50.846;20.632;2022-07-22T02:35:08;24;87
50788;DHT22;36756;50.846;20.632;2022-07-22T02:42:18;24;87
50788;DHT22;36756;50.846;20.632;2022-07-22T02:49:18;24;87
50788;DHT22;36756;50.846;20.632;2022-07-22T02:56:08;24;87
50788;DHT22;36756;50.846;20.632;2022-07-22T03:00:16;24;87
50788;DHT22;36756;50.846;20.632;2022-07-22T03:07:16;23;88
50788;DHT22;36756;50.846;20.632;2022-07-22T03:14:18;23;88
50788;DHT22;36756;50.846;20.632;2022-07-22T03:21:04;23;88
50788;DHT22;36756;50.846;20.632;2022-07-22T03:28:03;23;88
50788;DHT22;36756;50.846;20.632;2022-07-22T03:35:08;23;90
50788;DHT22;36756;50.846;20.632;2022-07-22T03:42:07;23;90
50788;DHT22;36756;50.846;20.632;2022-07-22T03:49:22;23;90
50788;DHT22;36756;50.846;20.632;2022-07-22T03:56:08;23;90
50788;DHT22;36756;50.846;20.632;2022-07-22T04:00:18;23;90
50788;DHT22;36756;50.846;20.632;2022-07-22T04:07:16;23;90
50788;DHT22;36756;50.846;20.632;2022-07-22T04:14:16;23;90
50788;DHT22;36756;50.846;20.632;2022-07-22T04:21:18;23;90
50788;DHT22;36756;50.846;20.632;2022-07-22T04:28:17;23;90
50788;DHT22;36756;50.846;20.632;2022-07-22T04:35:17;23;91
50788;DHT22;36756;50.846;20.632;2022-07-22T04:42:03;23;91
50788;DHT22;36756;50.846;20.632;2022-07-22T04:49:20;23;91
50788;DHT22;36756;50.846;20.632;2022-07-22T04:56:07;23;91
50788;DHT22;36756;50.846;20.632;2022-07-22T05:00:22;23;91
50788;DHT22;36756;50.846;20.632;2022-07-22T05:07:03;23;91
50788;DHT22;36756;50.846;20.632;2022-07-22T05:14:17;23;91
50788;DHT22;36756;50.846;20.632;2022-07-22T05:21:20;23;91
50788;DHT22;36756;50.846;20.632;2022-07-22T05:28:13;23;91
50788;DHT22;36756;50.846;20.632;2022-07-22T05:35:19;23;91
50788;DHT22;36756;50.846;20.632;2022-07-22T05:42:04;23;91
50788;DHT22;36756;50.846;20.632;2022-07-22T05:49:30;23;91
50788;DHT22;36756;50.846;20.632;2022-07-22T05:56:16;23;91
50788;DHT22;36756;50.846;20.632;2022-07-22T06:00:10;23;91
50788;DHT22;36756;50.846;20.632;2022-07-22T06:07:20;23;91
50788;DHT22;36756;50.846;20.632;2022-07-22T06:14:04;23;91
50788;DHT22;36756;50.846;20.632;2022-07-22T06:21:09;23;91
50788;DHT22;36756;50.846;20.632;2022-07-22T06:28:02;23;91
50788;DHT22;36756;50.846;20.632;2022-07-22T06:35:21;23;92
50788;DHT22;36756;50.846;20.632;2022-07-22T06:42:18;23;92
50788;DHT22;36756;50.846;20.632;2022-07-22T06:49:04;23;92
50788;DHT22;36756;50.846;20.632;2022-07-22T06:56:17;23;92
50788;DHT22;36756;50.846;20.632;2022-07-22T07:00:21;23;92
50788;DHT22;36756;50.846;20.632;2022-07-22T07:07:04;23;92
50788;DHT22;36756;50.846;20.632;2022-07-22T07:14:16;23;92
50788;DHT22;36756;50.846;20.632;2022-07-22T07:21:18;23;92
50788;DHT22;36756;50.846;20.632;2022-07-22T07:28:16;23;92
50788;DHT22;36756;50.846;20.632;2022-07-22T07:35:11;22;92
50788;DHT22;36756;50.846;20.632;2022-07-22T07:42:17;22;92
50788;DHT22;36756;50.846;20.632;2022-07-22T07:49:19;22;92
50788;DHT22;36756;50.846;20.632;2022-07-22T07:56:17;22;92
50788;DHT22;36756;50.846;20.632;2022-07-22T08:00:28;22;92
50788;DHT22;36756;50.846;20.632;2022-07-22T08:07:06;22;92
50788;DHT22;36756;50.846;20.632;2022-07-22T08:14:02;22;92
50788;DHT22;36756;50.846;20.632;2022-07-22T08:21:04;22;92
50788;DHT22;36756;50.846;20.632;2022-07-22T08:28:05;22;92
50788;DHT22;36756;50.846;20.632;2022-07-22T08:42:03;22;92
50788;DHT22;36756;50.846;20.632;2022-07-22T08:49:20;22;92
50788;DHT22;36756;50.846;20.632;2022-07-22T08:56:07;22;92
50788;DHT22;36756;50.846;20.632;2022-07-22T09:00:25;22;92
50788;DHT22;36756;50.846;20.632;2022-07-22T09:14:16;22;92
50788;DHT22;36756;50.846;20.632;2022-07-22T09:21:03;22;92
50788;DHT22;36756;50.846;20.632;2022-07-22T09:28:13;22;92
50788;DHT22;36756;50.846;20.632;2022-07-22T09:35:03;22;92
50788;DHT22;36756;50.846;20.632;2022-07-22T09:42:06;22;92
50788;DHT22;36756;50.846;20.632;2022-07-22T09:49:05;22;92
50788;DHT22;36756;50.846;20.632;2022-07-22T09:56:19;22;92
50788;DHT22;36756;50.846;20.632;2022-07-22T10:00:17;22;92
50788;DHT22;36756;50.846;20.632;2022-07-22T10:14:03;22;92
50788;DHT22;36756;50.846;20.632;2022-07-22T10:21:08;22;92
50788;DHT22;36756;50.846;20.632;2022-07-22T10:28:25;22;92
50788;DHT22;36756;50.846;20.632;2022-07-22T10:42:15;22;92
50788;DHT22;36756;50.846;20.632;2022-07-22T10:49:03;22;92
50788;DHT22;36756;50.846;20.632;2022-07-22T10:56:19;22;92
50788;DHT22;36756;50.846;20.632;2022-07-22T11:00:02;22;92
50788;DHT22;36756;50.846;20.632;2022-07-22T11:14:34;22;92
50788;DHT22;36756;50.846;20.632;2022-07-22T11:21:08;22;92
50788;DHT22;36756;50.846;20.632;2022-07-22T11:28:18;22;92
50788;DHT22;36756;50.846;20.632;2022-07-22T11:42:03;22;92
50788;DHT22;36756;50.846;20.632;2022-07-22T11:49:22;22;92
50788;DHT22;36756;50.846;20.632;2022-07-22T11:56:12;22;92
50788;DHT22;36756;50.846;20.632;2022-07-22T12:00:17;22;92
50788;DHT22;36756;50.846;20.632;2022-07-22T12:14:22;22;93
50788;DHT22;36756;50.846;20.632;2022-07-22T12:21:10;22;93
50788;DHT22;36756;50.846;20.632;2022-07-22T12:28:02;22;93
50788;DHT22;36756;50.846;20.632;2022-07-22T12:35:04;22;93
50788;DHT22;36756;50.846;20.632;2022-07-22T12:42:17;23;91
50788;DHT22;36756;50.846;20.632;2022-07-22T12:49:03;23;91
50788;DHT22;36756;50.846;20.632;2022-07-22T12:56:11;23;91
50788;DHT22;36756;50.846;20.632;2022-07-22T13:00:03;23;91
50788;DHT22;36756;50.846;20.632;2022-07-22T13:07:02;23;91
50788;DHT22;36756;50.846;20.632;2022-07-22T13:14:08;25;86
50788;DHT22;36756;50.846;20.632;2022-07-22T13:21:14;25;86
50788;DHT22;36756;50.846;20.632;2022-07-22T13:28:05;25;86
50788;DHT22;36756;50.846;20.632;2022-07-22T13:35:13;25;86
50788;DHT22;36756;50.846;20.632;2022-07-22T13:42:17;25;86
50788;DHT22;36756;50.846;20.632;2022-07-22T13:49:23;25;86
50788;DHT22;36756;50.846;20.632;2022-07-22T13:56:16;25;86
50788;DHT22;36756;50.846;20.632;2022-07-22T14:00:09;25;86
50788;DHT22;36756;50.846;20.632;2022-07-22T14:07:03;25;86
50788;DHT22;36756;50.846;20.632;2022-07-22T14:14:01;25;83
50788;DHT22;36756;50.846;20.632;2022-07-22T14:21:02;25;83
50788;DHT22;36756;50.846;20.632;2022-07-22T14:28:03;25;83
50788;DHT22;36756;50.846;20.632;2022-07-22T14:35:21;25;83
50788;DHT22;36756;50.846;20.632;2022-07-22T14:42:20;23;76
50788;DHT22;36756;50.846;20.632;2022-07-22T14:49:04;23;76
50788;DHT22;36756;50.846;20.632;2022-07-22T14:56:17;23;76
50788;DHT22;36756;50.846;20.632;2022-07-22T15:00:06;23;76
50788;DHT22;36756;50.846;20.632;2022-07-22T15:07:03;23;76
50788;DHT22;36756;50.846;20.632;2022-07-22T15:14:13;23;78
50788;DHT22;36756;50.846;20.632;2022-07-22T15:21:06;23;78
50788;DHT22;36756;50.846;20.632;2022-07-22T15:28:18;23;78
50788;DHT22;36756;50.846;20.632;2022-07-22T15:35:18;23;78
50788;DHT22;36756;50.846;20.632;2022-07-22T15:42:16;23;78
50788;DHT22;36756;50.846;20.632;2022-07-22T15:49:03;23;78
50788;DHT22;36756;50.846;20.632;2022-07-22T15:56:08;23;78
50788;DHT22;36756;50.846;20.632;2022-07-22T16:00:15;23;78
50788;DHT22;36756;50.846;20.632;2022-07-22T16:07:06;23;78
50788;DHT22;36756;50.846;20.632;2022-07-22T16:14:13;23;78
50788;DHT22;36756;50.846;20.632;2022-07-22T16:21:26;23;78
50788;DHT22;36756;50.846;20.632;2022-07-22T16:28:17;23;78
50788;DHT22;36756;50.846;20.632;2022-07-22T16:35:08;23;78
50788;DHT22;36756;50.846;20.632;2022-07-22T16:42:07;23;79
50788;DHT22;36756;50.846;20.632;2022-07-22T16:49:07;23;79
50788;DHT22;36756;50.846;20.632;2022-07-22T16:56:18;23;79
50788;DHT22;36756;50.846;20.632;2022-07-22T17:00:10;23;79
50788;DHT22;36756;50.846;20.632;2022-07-22T17:07:08;23;79
50788;DHT22;36756;50.846;20.632;2022-07-22T17:14:03;23;79
50788;DHT22;36756;50.846;20.632;2022-07-22T17:21:07;23;79
50788;DHT22;36756;50.846;20.632;2022-07-22T17:28:17;23;79
50788;DHT22;36756;50.846;20.632;2022-07-22T17:35:07;23;79
50788;DHT22;36756;50.846;20.632;2022-07-22T17:42:19;23;79
50788;DHT22;36756;50.846;20.632;2022-07-22T17:49:03;23;79
50788;DHT22;36756;50.846;20.632;2022-07-22T17:56:21;23;79
50788;DHT22;36756;50.846;20.632;2022-07-22T18:00:10;23;79
50788;DHT22;36756;50.846;20.632;2022-07-22T18:07:05;23;79
50788;DHT22;36756;50.846;20.632;2022-07-22T18:21:02;23;74
50788;DHT22;36756;50.846;20.632;2022-07-22T18:28:03;23;74
50788;DHT22;36756;50.846;20.632;2022-07-22T18:35:03;23;74
50788;DHT22;36756;50.846;20.632;2022-07-22T18:49:23;23;74
50788;DHT22;36756;50.846;20.632;2022-07-22T18:56:08;23;74
50788;DHT22;36756;50.846;20.632;2022-07-22T19:00:14;23;74
50788;DHT22;36756;50.846;20.632;2022-07-22T19:07:17;23;74
50788;DHT22;36756;50.846;20.632;2022-07-22T19:21:14;23;72
50788;DHT22;36756;50.846;20.632;2022-07-22T19:28:06;23;72
50788;DHT22;36756;50.846;20.632;2022-07-22T19:35:18;23;72
50788;DHT22;36756;50.846;20.632;2022-07-22T19:49:22;23;72
50788;DHT22;36756;50.846;20.632;2022-07-22T19:56:15;23;72
50788;DHT22;36756;50.846;20.632;2022-07-22T20:00:08;23;72
50788;DHT22;36756;50.846;20.632;2022-07-22T20:07:03;23;72
50788;DHT22;36756;50.846;20.632;2022-07-22T20:21:16;23;73
50788;DHT22;36756;50.846;20.632;2022-07-22T20:28:04;23;73
50788;DHT22;36756;50.846;20.632;2022-07-22T20:35:07;23;73
50788;DHT22;36756;50.846;20.632;2022-07-22T20:49:04;23;75
50788;DHT22;36756;50.846;20.632;2022-07-22T20:56:18;23;75
50788;DHT22;36756;50.846;20.632;2022-07-22T21:00:02;23;75
50788;DHT22;36756;50.846;20.632;2022-07-22T21:07:02;23;75
50788;DHT22;36756;50.846;20.632;2022-07-22T21:21:15;23;75
50788;DHT22;36756;50.846;20.632;2022-07-22T21:28:24;23;75
50788;DHT22;36756;50.846;20.632;2022-07-22T21:35:15;23;75
50788;DHT22;36756;50.846;20.632;2022-07-22T21:49:12;23;75
50788;DHT22;36756;50.846;20.632;2022-07-22T22:00:08;23;75
50788;DHT22;36756;50.846;20.632;2022-07-22T22:07:16;23;75
50788;DHT22;36756;50.846;20.632;2022-07-22T22:14:21;23;75
50788;DHT22;36756;50.846;20.632;2022-07-22T22:21:17;23;75
50788;DHT22;36756;50.846;20.632;2022-07-22T22:28:18;23;75
50788;DHT22;36756;50.846;20.632;2022-07-22T22:35:16;23;75
50788;DHT22;36756;50.846;20.632;2022-07-22T22:42:17;23;75
50788;DHT22;36756;50.846;20.632;2022-07-22T22:49:06;23;75
50788;DHT22;36756;50.846;20.632;2022-07-22T22:56:21;23;75
50788;DHT22;36756;50.846;20.632;2022-07-22T23:07:16;23;75
50788;DHT22;36756;50.846;20.632;2022-07-22T23:14:03;23;75
50788;DHT22;36756;50.846;20.632;2022-07-22T23:21:17;23;75
50788;DHT22;36756;50.846;20.632;2022-07-22T23:28:02;23;75
50788;DHT22;36756;50.846;20.632;2022-07-22T23:35:16;24;86
50788;DHT22;36756;50.846;20.632;2022-07-22T23:42:05;24;86
50788;DHT22;36756;50.846;20.632;2022-07-22T23:49:04;24;86
50788;DHT22;36756;50.846;20.632;2022-07-22T23:56:08;24;86
